sensor_id;sensor_type;location;lat;lon;timestamp;pressure;altitude;pressure_sealevel;temperature;humidity
18835;BME280;9546;59.262;18.036;2022-07-23T00:00:53;64177.75;;;-139.62;100.00
18835;BME280;9546;59.262;18.036;2022-07-23T00:03:21;64177.75;;;-139.62;100.00
18835;BME280;9546;59.262;18.036;2022-07-23T00:05:48;64177.75;;;-139.62;100.00
18835;BME280;9546;59.262;18.036;2022-07-23T00:08:15;64177.75;;;-139.62;100.00
18835;BME280;9546;59.262;18.036;2022-07-23T00:10:42;64177.75;;;-139.62;100.00
18835;BME280;9546;59.262;18.036;2022-07-23T00:13:09;64177.75;;;-139.62;100.00
18835;BME280;9546;59.262;18.036;2022-07-23T00:15:36;64177.75;;;-139.62;100.00
18835;BME280;9546;59.262;18.036;2022-07-23T00:18:03;64177.75;;;-139.62;100.00
18835;BME280;9546;59.262;18.036;2022-07-23T00:20:31;64177.75;;;-139.62;100.00
18835;BME280;9546;59.262;18.036;2022-07-23T00:22:58;64177.75;;;-139.62;100.00
18835;BME280;9546;59.262;18.036;2022-07-23T00:25:26;64177.75;;;-139.62;100.00
18835;BME280;9546;59.262;18.036;2022-07-23T00:27:53;64177.75;;;-139.62;100.00
18835;BME280;9546;59.262;18.036;2022-07-23T00:30:19;64177.75;;;-139.62;100.00
18835;BME280;9546;59.262;18.036;2022-07-23T00:32:47;64177.75;;;-139.62;100.00
18835;BME280;9546;59.262;18.036;2022-07-23T00:35:14;64177.75;;;-139.62;100.00
18835;BME280;9546;59.262;18.036;2022-07-23T00:37:42;64177.75;;;-139.62;100.00
18835;BME280;9546;59.262;18.036;2022-07-23T00:40:10;64177.75;;;-139.62;100.00
18835;BME280;9546;59.262;18.036;2022-07-23T00:42:38;64177.75;;;-139.62;100.00
18835;BME280;9546;59.262;18.036;2022-07-23T00:45:06;64177.75;;;-139.62;100.00
18835;BME280;9546;59.262;18.036;2022-07-23T00:47:33;64177.75;;;-139.62;100.00
18835;BME280;9546;59.262;18.036;2022-07-23T00:50:00;64177.75;;;-139.62;100.00
18835;BME280;9546;59.262;18.036;2022-07-23T01:11:54;100673.13;;;23.19;100.00
18835;BME280;9546;59.262;18.036;2022-07-23T01:14:21;100673.13;;;23.19;100.00
18835;BME280;9546;59.262;18.036;2022-07-23T01:16:49;100661.03;;;23.68;100.00
18835;BME280;9546;59.262;18.036;2022-07-23T01:19:17;100664.09;;;23.89;100.00
18835;BME280;9546;59.262;18.036;2022-07-23T01:21:45;100658.78;;;24.14;100.00
18835;BME280;9546;59.262;18.036;2022-07-23T01:24:14;98244.44;;;-139.62;100.00
18835;BME280;9546;59.262;18.036;2022-07-23T01:26:43;64177.75;;;-139.62;100.00
18835;BME280;9546;59.262;18.036;2022-07-23T01:29:10;64177.75;;;-139.62;100.00
18835;BME280;9546;59.262;18.036;2022-07-23T01:31:37;64177.75;;;-139.62;100.00
18835;BME280;9546;59.262;18.036;2022-07-23T01:34:04;64177.75;;;-139.62;100.00
18835;BME280;9546;59.262;18.036;2022-07-23T01:36:32;64177.75;;;-139.62;100.00
18835;BME280;9546;59.262;18.036;2022-07-23T01:38:59;64177.75;;;-139.62;100.00
18835;BME280;9546;59.262;18.036;2022-07-23T01:41:28;64177.75;;;-139.62;100.00
18835;BME280;9546;59.262;18.036;2022-07-23T01:43:55;64177.75;;;-139.62;100.00
18835;BME280;9546;59.262;18.036;2022-07-23T01:46:21;64177.75;;;-139.62;100.00
18835;BME280;9546;59.262;18.036;2022-07-23T01:48:48;64177.75;;;-139.62;100.00
18835;BME280;9546;59.262;18.036;2022-07-23T01:51:15;64177.75;;;-139.62;100.00
18835;BME280;9546;59.262;18.036;2022-07-23T01:53:42;64177.75;;;-139.62;100.00
18835;BME280;9546;59.262;18.036;2022-07-23T01:56:09;64177.75;;;-139.62;100.00
18835;BME280;9546;59.262;18.036;2022-07-23T01:58:37;64177.75;;;-139.62;100.00
18835;BME280;9546;59.262;18.036;2022-07-23T02:01:04;64177.75;;;-139.62;100.00
18835;BME280;9546;59.262;18.036;2022-07-23T02:03:31;64177.75;;;-139.62;100.00
18835;BME280;9546;59.262;18.036;2022-07-23T02:05:58;64177.75;;;-139.62;100.00
18835;BME280;9546;59.262;18.036;2022-07-23T02:08:24;64177.75;;;-139.62;100.00
18835;BME280;9546;59.262;18.036;2022-07-23T02:10:51;64177.75;;;-139.62;100.00
18835;BME280;9546;59.262;18.036;2022-07-23T02:13:18;64177.75;;;-139.62;100.00
18835;BME280;9546;59.262;18.036;2022-07-23T02:15:47;64177.75;;;-139.62;100.00
18835;BME280;9546;59.262;18.036;2022-07-23T02:18:14;64177.75;;;-139.62;100.00
18835;BME280;9546;59.262;18.036;2022-07-23T02:20:41;64177.75;;;-139.62;100.00
18835;BME280;9546;59.262;18.036;2022-07-23T02:23:08;64177.75;;;-139.62;100.00
18835;BME280;9546;59.262;18.036;2022-07-23T02:25:34;64177.75;;;-139.62;100.00
18835;BME280;9546;59.262;18.036;2022-07-23T02:28:02;64177.75;;;-139.62;100.00
18835;BME280;9546;59.262;18.036;2022-07-23T02:30:29;64177.75;;;-139.62;100.00
18835;BME280;9546;59.262;18.036;2022-07-23T02:32:57;64177.75;;;-139.62;100.00
18835;BME280;9546;59.262;18.036;2022-07-23T02:35:24;64177.75;;;-139.62;100.00
18835;BME280;9546;59.262;18.036;2022-07-23T02:37:51;64177.75;;;-139.62;100.00
18835;BME280;9546;59.262;18.036;2022-07-23T02:40:18;64177.75;;;-139.62;100.00
18835;BME280;9546;59.262;18.036;2022-07-23T02:42:45;64177.75;;;-139.62;100.00
18835;BME280;9546;59.262;18.036;2022-07-23T02:45:12;64177.75;;;-139.62;100.00
18835;BME280;9546;59.262;18.036;2022-07-23T02:47:39;64177.75;;;-139.62;100.00
18835;BME280;9546;59.262;18.036;2022-07-23T02:50:08;64177.75;;;-139.62;100.00
18835;BME280;9546;59.262;18.036;2022-07-23T03:12:20;64177.75;;;-139.62;100.00
18835;BME280;9546;59.262;18.036;2022-07-23T03:14:47;100702.41;;;18.53;100.00
18835;BME280;9546;59.262;18.036;2022-07-23T03:17:14;64177.75;;;-139.62;100.00
18835;BME280;9546;59.262;18.036;2022-07-23T03:19:41;64177.75;;;-139.62;100.00
18835;BME280;9546;59.262;18.036;2022-07-23T03:22:08;100702.41;;;18.53;100.00
18835;BME280;9546;59.262;18.036;2022-07-23T03:24:35;100680.38;;;22.43;100.00
18835;BME280;9546;59.262;18.036;2022-07-23T03:27:24;100680.16;;;22.26;100.00
18835;BME280;9546;59.262;18.036;2022-07-23T03:29:51;100685.41;;;22.36;100.00
18835;BME280;9546;59.262;18.036;2022-07-23T03:32:19;100665.09;;;22.29;100.00
18835;BME280;9546;59.262;18.036;2022-07-23T03:34:49;100656.25;;;21.73;100.00
18835;BME280;9546;59.262;18.036;2022-07-23T03:37:16;64177.75;;;-139.62;100.00
18835;BME280;9546;59.262;18.036;2022-07-23T03:39:43;64177.75;;;-139.62;100.00
18835;BME280;9546;59.262;18.036;2022-07-23T03:42:10;64177.75;;;-139.62;100.00
18835;BME280;9546;59.262;18.036;2022-07-23T03:44:38;64177.75;;;-139.62;100.00
18835;BME280;9546;59.262;18.036;2022-07-23T03:47:05;64177.75;;;-139.62;100.00
18835;BME280;9546;59.262;18.036;2022-07-23T03:49:33;64177.75;;;-139.62;100.00
18835;BME280;9546;59.262;18.036;2022-07-23T03:52:00;64177.75;;;-139.62;100.00
18835;BME280;9546;59.262;18.036;2022-07-23T03:54:27;64177.75;;;-139.62;100.00
18835;BME280;9546;59.262;18.036;2022-07-23T03:56:54;64177.75;;;-139.62;100.00
18835;BME280;9546;59.262;18.036;2022-07-23T03:59:21;64177.75;;;-139.62;100.00
18835;BME280;9546;59.262;18.036;2022-07-23T04:01:49;64177.75;;;-139.62;100.00
18835;BME280;9546;59.262;18.036;2022-07-23T04:04:16;64177.75;;;-139.62;100.00
18835;BME280;9546;59.262;18.036;2022-07-23T04:06:43;64177.75;;;-139.62;100.00
18835;BME280;9546;59.262;18.036;2022-07-23T04:09:10;64177.75;;;-139.62;100.00
18835;BME280;9546;59.262;18.036;2022-07-23T04:11:37;64177.75;;;-139.62;100.00
18835;BME280;9546;59.262;18.036;2022-07-23T04:14:04;64177.75;;;-139.62;100.00
18835;BME280;9546;59.262;18.036;2022-07-23T04:16:30;64177.75;;;-139.62;100.00
18835;BME280;9546;59.262;18.036;2022-07-23T04:18:59;64177.75;;;-139.62;100.00
18835;BME280;9546;59.262;18.036;2022-07-23T04:21:25;64177.75;;;-139.62;100.00
18835;BME280;9546;59.262;18.036;2022-07-23T04:23:52;64177.75;;;-139.62;100.00
18835;BME280;9546;59.262;18.036;2022-07-23T04:26:19;64177.75;;;-139.62;100.00
18835;BME280;9546;59.262;18.036;2022-07-23T04:28:46;64177.75;;;-139.62;100.00
18835;BME280;9546;59.262;18.036;2022-07-23T04:31:13;64177.75;;;-139.62;100.00
18835;BME280;9546;59.262;18.036;2022-07-23T04:33:40;64177.75;;;-139.62;100.00
18835;BME280;9546;59.262;18.036;2022-07-23T04:36:08;64177.75;;;-139.62;100.00
18835;BME280;9546;59.262;18.036;2022-07-23T04:38:35;64177.75;;;-139.62;100.00
18835;BME280;9546;59.262;18.036;2022-07-23T04:41:02;64177.75;;;-139.62;100.00
18835;BME280;9546;59.262;18.036;2022-07-23T04:43:29;64177.75;;;-139.62;100.00
18835;BME280;9546;59.262;18.036;2022-07-23T04:45:55;64177.75;;;-139.62;100.00
18835;BME280;9546;59.262;18.036;2022-07-23T04:48:22;64177.75;;;-139.62;100.00
18835;BME280;9546;59.262;18.036;2022-07-23T04:50:49;64177.75;;;-139.62;100.00
18835;BME280;9546;59.262;18.036;2022-07-23T07:12:14;100694.78;;;23.51;100.00
18835;BME280;9546;59.262;18.036;2022-07-23T07:14:41;100690.22;;;24.25;100.00
18835;BME280;9546;59.262;18.036;2022-07-23T07:17:08;100693.19;;;24.28;100.00
18835;BME280;9546;59.262;18.036;2022-07-23T07:19:36;100710.81;;;24.74;100.00
18835;BME280;9546;59.262;18.036;2022-07-23T07:22:03;64177.75;;;-139.62;100.00
18835;BME280;9546;59.262;18.036;2022-07-23T07:24:29;64177.75;;;-139.62;100.00
18835;BME280;9546;59.262;18.036;2022-07-23T07:26:56;100710.81;;;24.74;100.00
18835;BME280;9546;59.262;18.036;2022-07-23T07:29:24;100697.81;;;25.27;100.00
18835;BME280;9546;59.262;18.036;2022-07-23T07:31:52;64177.75;;;-139.62;100.00
18835;BME280;9546;59.262;18.036;2022-07-23T07:34:19;64177.75;;;-139.62;100.00
18835;BME280;9546;59.262;18.036;2022-07-23T07:36:46;64177.75;;;-139.62;100.00
18835;BME280;9546;59.262;18.036;2022-07-23T07:39:12;64177.75;;;-139.62;100.00
18835;BME280;9546;59.262;18.036;2022-07-23T07:41:39;64177.75;;;-139.62;100.00
18835;BME280;9546;59.262;18.036;2022-07-23T07:44:06;64177.75;;;-139.62;100.00
18835;BME280;9546;59.262;18.036;2022-07-23T07:46:34;64177.75;;;-139.62;100.00
18835;BME280;9546;59.262;18.036;2022-07-23T07:49:01;64177.75;;;-139.62;100.00
18835;BME280;9546;59.262;18.036;2022-07-23T07:51:28;64177.75;;;-139.62;100.00
18835;BME280;9546;59.262;18.036;2022-07-23T07:53:55;64177.75;;;-139.62;100.00
18835;BME280;9546;59.262;18.036;2022-07-23T07:56:22;64177.75;;;-139.62;100.00
18835;BME280;9546;59.262;18.036;2022-07-23T07:58:49;64177.75;;;-139.62;100.00
18835;BME280;9546;59.262;18.036;2022-07-23T08:01:16;64177.75;;;-139.62;100.00
18835;BME280;9546;59.262;18.036;2022-07-23T08:03:46;64177.75;;;-139.62;100.00
18835;BME280;9546;59.262;18.036;2022-07-23T08:06:12;64177.75;;;-139.62;100.00
18835;BME280;9546;59.262;18.036;2022-07-23T08:08:39;64177.75;;;-139.62;100.00
18835;BME280;9546;59.262;18.036;2022-07-23T08:11:06;64177.75;;;-139.62;100.00
18835;BME280;9546;59.262;18.036;2022-07-23T08:13:33;64177.75;;;-139.62;100.00
18835;BME280;9546;59.262;18.036;2022-07-23T08:16:00;64177.75;;;-139.62;100.00
18835;BME280;9546;59.262;18.036;2022-07-23T08:18:29;64177.75;;;-139.62;100.00
18835;BME280;9546;59.262;18.036;2022-07-23T08:20:57;64177.75;;;-139.62;100.00
18835;BME280;9546;59.262;18.036;2022-07-23T08:23:24;64177.75;;;-139.62;100.00
18835;BME280;9546;59.262;18.036;2022-07-23T08:25:53;64177.75;;;-139.62;100.00
18835;BME280;9546;59.262;18.036;2022-07-23T08:28:22;64177.75;;;-139.62;100.00
18835;BME280;9546;59.262;18.036;2022-07-23T08:30:49;64177.75;;;-139.62;100.00
18835;BME280;9546;59.262;18.036;2022-07-23T08:33:16;64177.75;;;-139.62;100.00
18835;BME280;9546;59.262;18.036;2022-07-23T08:35:44;64177.75;;;-139.62;100.00
18835;BME280;9546;59.262;18.036;2022-07-23T08:38:14;64177.75;;;-139.62;100.00
18835;BME280;9546;59.262;18.036;2022-07-23T08:40:42;64177.75;;;-139.62;100.00
18835;BME280;9546;59.262;18.036;2022-07-23T08:43:11;64177.75;;;-139.62;100.00
18835;BME280;9546;59.262;18.036;2022-07-23T08:45:39;64177.75;;;-139.62;100.00
18835;BME280;9546;59.262;18.036;2022-07-23T08:48:08;64177.75;;;-139.62;100.00
18835;BME280;9546;59.262;18.036;2022-07-23T08:50:35;64177.75;;;-139.62;100.00
18835;BME280;9546;59.262;18.036;2022-07-23T09:12:53;100767.38;;;23.30;100.00
18835;BME280;9546;59.262;18.036;2022-07-23T09:15:20;100769.47;;;23.73;100.00
18835;BME280;9546;59.262;18.036;2022-07-23T09:17:47;100785.16;;;24.38;100.00
18835;BME280;9546;59.262;18.036;2022-07-23T09:20:16;100778.00;;;24.50;100.00
18835;BME280;9546;59.262;18.036;2022-07-23T09:22:45;100769.84;;;24.37;100.00
18835;BME280;9546;59.262;18.036;2022-07-23T09:25:14;100765.00;;;24.55;100.00
18835;BME280;9546;59.262;18.036;2022-07-23T09:27:47;64177.75;;;-139.62;100.00
18835;BME280;9546;59.262;18.036;2022-07-23T09:30:16;64177.75;;;-139.62;100.00
18835;BME280;9546;59.262;18.036;2022-07-23T09:32:43;64177.75;;;-139.62;100.00
18835;BME280;9546;59.262;18.036;2022-07-23T09:35:10;64177.75;;;-139.62;100.00
18835;BME280;9546;59.262;18.036;2022-07-23T09:37:37;64177.75;;;-139.62;100.00
18835;BME280;9546;59.262;18.036;2022-07-23T09:40:06;64177.75;;;-139.62;100.00
18835;BME280;9546;59.262;18.036;2022-07-23T09:42:33;64177.75;;;-139.62;100.00
18835;BME280;9546;59.262;18.036;2022-07-23T09:45:00;64177.75;;;-139.62;100.00
18835;BME280;9546;59.262;18.036;2022-07-23T09:47:31;64177.75;;;-139.62;100.00
18835;BME280;9546;59.262;18.036;2022-07-23T09:49:59;64177.75;;;-139.62;100.00
18835;BME280;9546;59.262;18.036;2022-07-23T09:52:28;64177.75;;;-139.62;100.00
18835;BME280;9546;59.262;18.036;2022-07-23T09:54:59;64177.75;;;-139.62;100.00
18835;BME280;9546;59.262;18.036;2022-07-23T09:57:27;64177.75;;;-139.62;100.00
18835;BME280;9546;59.262;18.036;2022-07-23T09:59:56;64177.75;;;-139.62;100.00
18835;BME280;9546;59.262;18.036;2022-07-23T10:02:24;64177.75;;;-139.62;100.00
18835;BME280;9546;59.262;18.036;2022-07-23T10:04:53;64177.75;;;-139.62;100.00
18835;BME280;9546;59.262;18.036;2022-07-23T10:07:21;64177.75;;;-139.62;100.00
18835;BME280;9546;59.262;18.036;2022-07-23T10:09:50;64177.75;;;-139.62;100.00
18835;BME280;9546;59.262;18.036;2022-07-23T10:12:19;64177.75;;;-139.62;100.00
18835;BME280;9546;59.262;18.036;2022-07-23T10:15:00;64177.75;;;-139.62;100.00
18835;BME280;9546;59.262;18.036;2022-07-23T10:17:28;64177.75;;;-139.62;100.00
18835;BME280;9546;59.262;18.036;2022-07-23T10:19:57;64177.75;;;-139.62;100.00
18835;BME280;9546;59.262;18.036;2022-07-23T10:22:26;64177.75;;;-139.62;100.00
18835;BME280;9546;59.262;18.036;2022-07-23T10:24:59;64177.75;;;-139.62;100.00
18835;BME280;9546;59.262;18.036;2022-07-23T10:27:54;64177.75;;;-139.62;100.00
18835;BME280;9546;59.262;18.036;2022-07-23T10:30:30;64177.75;;;-139.62;100.00
18835;BME280;9546;59.262;18.036;2022-07-23T10:33:11;64177.75;;;-139.62;100.00
18835;BME280;9546;59.262;18.036;2022-07-23T10:35:47;64177.75;;;-139.62;100.00
18835;BME280;9546;59.262;18.036;2022-07-23T10:38:21;64177.75;;;-139.62;100.00
18835;BME280;9546;59.262;18.036;2022-07-23T10:40:56;64177.75;;;-139.62;100.00
18835;BME280;9546;59.262;18.036;2022-07-23T10:43:24;64177.75;;;-139.62;100.00
18835;BME280;9546;59.262;18.036;2022-07-23T10:45:51;64177.75;;;-139.62;100.00
18835;BME280;9546;59.262;18.036;2022-07-23T10:48:20;64177.75;;;-139.62;100.00
18835;BME280;9546;59.262;18.036;2022-07-23T10:51:07;64177.75;;;-139.62;100.00
18835;BME280;9546;59.262;18.036;2022-07-23T11:12:34;100806.78;;;23.91;100.00
18835;BME280;9546;59.262;18.036;2022-07-23T11:15:06;64177.75;;;-139.62;100.00
18835;BME280;9546;59.262;18.036;2022-07-23T11:17:35;100811.53;;;24.34;100.00
18835;BME280;9546;59.262;18.036;2022-07-23T11:20:20;100811.53;;;24.34;100.00
18835;BME280;9546;59.262;18.036;2022-07-23T11:22:50;100814.75;;;24.57;100.00
18835;BME280;9546;59.262;18.036;2022-07-23T11:25:32;100809.97;;;24.63;100.00
18835;BME280;9546;59.262;18.036;2022-07-23T11:28:15;79110.25;;;-139.60;100.00
18835;BME280;9546;59.262;18.036;2022-07-23T11:30:44;64177.75;;;-139.62;100.00
18835;BME280;9546;59.262;18.036;2022-07-23T11:33:20;64177.75;;;-139.62;100.00
18835;BME280;9546;59.262;18.036;2022-07-23T11:35:49;64177.75;;;-139.62;100.00
18835;BME280;9546;59.262;18.036;2022-07-23T11:38:18;64177.75;;;-139.62;100.00
18835;BME280;9546;59.262;18.036;2022-07-23T11:40:47;64177.75;;;-139.62;100.00
18835;BME280;9546;59.262;18.036;2022-07-23T11:43:17;64177.75;;;-139.62;100.00
18835;BME280;9546;59.262;18.036;2022-07-23T11:45:46;64177.75;;;-139.62;100.00
18835;BME280;9546;59.262;18.036;2022-07-23T11:48:17;64177.75;;;-139.62;100.00
18835;BME280;9546;59.262;18.036;2022-07-23T11:50:45;64177.75;;;-139.62;100.00
18835;BME280;9546;59.262;18.036;2022-07-23T11:53:21;64177.75;;;-139.62;100.00
18835;BME280;9546;59.262;18.036;2022-07-23T11:55:48;64177.75;;;-139.62;100.00
18835;BME280;9546;59.262;18.036;2022-07-23T11:58:17;64177.75;;;-139.62;100.00
18835;BME280;9546;59.262;18.036;2022-07-23T12:00:44;64177.75;;;-139.62;100.00
18835;BME280;9546;59.262;18.036;2022-07-23T12:03:11;64177.75;;;-139.62;100.00
18835;BME280;9546;59.262;18.036;2022-07-23T12:05:38;64177.75;;;-139.62;100.00
18835;BME280;9546;59.262;18.036;2022-07-23T12:08:07;64177.75;;;-139.62;100.00
18835;BME280;9546;59.262;18.036;2022-07-23T12:10:36;64177.75;;;-139.62;100.00
18835;BME280;9546;59.262;18.036;2022-07-23T12:13:04;64177.75;;;-139.62;100.00
18835;BME280;9546;59.262;18.036;2022-07-23T12:15:35;64177.75;;;-139.62;100.00
18835;BME280;9546;59.262;18.036;2022-07-23T12:18:04;64177.75;;;-139.62;100.00
18835;BME280;9546;59.262;18.036;2022-07-23T12:20:33;64177.75;;;-139.62;100.00
18835;BME280;9546;59.262;18.036;2022-07-23T12:23:04;64177.75;;;-139.62;100.00
18835;BME280;9546;59.262;18.036;2022-07-23T12:25:32;64177.75;;;-139.62;100.00
18835;BME280;9546;59.262;18.036;2022-07-23T12:28:03;64177.75;;;-139.62;100.00
18835;BME280;9546;59.262;18.036;2022-07-23T12:30:34;64177.75;;;-139.62;100.00
18835;BME280;9546;59.262;18.036;2022-07-23T12:33:01;64177.75;;;-139.62;100.00
18835;BME280;9546;59.262;18.036;2022-07-23T12:35:35;64177.75;;;-139.62;100.00
18835;BME280;9546;59.262;18.036;2022-07-23T12:38:04;64177.75;;;-139.62;100.00
18835;BME280;9546;59.262;18.036;2022-07-23T12:40:34;64177.75;;;-139.62;100.00
18835;BME280;9546;59.262;18.036;2022-07-23T12:43:04;64177.75;;;-139.62;100.00
18835;BME280;9546;59.262;18.036;2022-07-23T12:45:46;64177.75;;;-139.62;100.00
18835;BME280;9546;59.262;18.036;2022-07-23T12:48:21;64177.75;;;-139.62;100.00
18835;BME280;9546;59.262;18.036;2022-07-23T12:50:53;64177.75;;;-139.62;100.00
18835;BME280;9546;59.262;18.036;2022-07-23T15:12:14;100832.88;;;23.48;100.00
18835;BME280;9546;59.262;18.036;2022-07-23T15:14:41;100832.88;;;23.48;100.00
18835;BME280;9546;59.262;18.036;2022-07-23T15:17:08;100847.94;;;23.46;100.00
18835;BME280;9546;59.262;18.036;2022-07-23T15:19:35;100792.50;;;23.05;100.00
18835;BME280;9546;59.262;18.036;2022-07-23T15:22:02;64177.75;;;-139.62;100.00
18835;BME280;9546;59.262;18.036;2022-07-23T15:24:29;100822.91;;;23.79;100.00
18835;BME280;9546;59.262;18.036;2022-07-23T15:26:56;64177.75;;;-139.62;100.00
18835;BME280;9546;59.262;18.036;2022-07-23T15:29:25;64177.75;;;-139.62;100.00
18835;BME280;9546;59.262;18.036;2022-07-23T15:31:52;64177.75;;;-139.62;100.00
18835;BME280;9546;59.262;18.036;2022-07-23T15:34:19;64177.75;;;-139.62;100.00
18835;BME280;9546;59.262;18.036;2022-07-23T15:36:45;64177.75;;;-139.62;100.00
18835;BME280;9546;59.262;18.036;2022-07-23T15:39:12;64177.75;;;-139.62;100.00
18835;BME280;9546;59.262;18.036;2022-07-23T15:41:39;64177.75;;;-139.62;100.00
18835;BME280;9546;59.262;18.036;2022-07-23T15:44:06;64177.75;;;-139.62;100.00
18835;BME280;9546;59.262;18.036;2022-07-23T15:46:34;64177.75;;;-139.62;100.00
18835;BME280;9546;59.262;18.036;2022-07-23T15:49:01;64177.75;;;-139.62;100.00
18835;BME280;9546;59.262;18.036;2022-07-23T15:51:28;64177.75;;;-139.62;100.00
18835;BME280;9546;59.262;18.036;2022-07-23T15:53:56;64177.75;;;-139.62;100.00
18835;BME280;9546;59.262;18.036;2022-07-23T15:56:23;64177.75;;;-139.62;100.00
18835;BME280;9546;59.262;18.036;2022-07-23T15:58:50;64177.75;;;-139.62;100.00
18835;BME280;9546;59.262;18.036;2022-07-23T16:01:17;64177.75;;;-139.62;100.00
18835;BME280;9546;59.262;18.036;2022-07-23T16:03:45;64177.75;;;-139.62;100.00
18835;BME280;9546;59.262;18.036;2022-07-23T16:06:12;64177.75;;;-139.62;100.00
18835;BME280;9546;59.262;18.036;2022-07-23T16:08:39;64177.75;;;-139.62;100.00
18835;BME280;9546;59.262;18.036;2022-07-23T16:11:06;64177.75;;;-139.62;100.00
18835;BME280;9546;59.262;18.036;2022-07-23T16:13:32;64177.75;;;-139.62;100.00
18835;BME280;9546;59.262;18.036;2022-07-23T16:16:01;64177.75;;;-139.62;100.00
18835;BME280;9546;59.262;18.036;2022-07-23T16:18:28;64177.75;;;-139.62;100.00
18835;BME280;9546;59.262;18.036;2022-07-23T16:20:57;64177.75;;;-139.62;100.00
18835;BME280;9546;59.262;18.036;2022-07-23T16:23:24;64177.75;;;-139.62;100.00
18835;BME280;9546;59.262;18.036;2022-07-23T16:25:51;64177.75;;;-139.62;100.00
18835;BME280;9546;59.262;18.036;2022-07-23T16:28:18;64177.75;;;-139.62;100.00
18835;BME280;9546;59.262;18.036;2022-07-23T16:30:45;64177.75;;;-139.62;100.00
18835;BME280;9546;59.262;18.036;2022-07-23T16:33:12;64177.75;;;-139.62;100.00
18835;BME280;9546;59.262;18.036;2022-07-23T16:35:39;64177.75;;;-139.62;100.00
18835;BME280;9546;59.262;18.036;2022-07-23T16:38:07;64177.75;;;-139.62;100.00
18835;BME280;9546;59.262;18.036;2022-07-23T16:40:34;64177.75;;;-139.62;100.00
18835;BME280;9546;59.262;18.036;2022-07-23T16:43:00;64177.75;;;-139.62;100.00
18835;BME280;9546;59.262;18.036;2022-07-23T16:45:27;64177.75;;;-139.62;100.00
18835;BME280;9546;59.262;18.036;2022-07-23T16:47:55;64177.75;;;-139.62;100.00
18835;BME280;9546;59.262;18.036;2022-07-23T16:50:22;64177.75;;;-139.62;100.00
18835;BME280;9546;59.262;18.036;2022-07-23T17:12:28;100837.63;;;23.56;100.00
18835;BME280;9546;59.262;18.036;2022-07-23T17:14:55;100836.28;;;23.53;100.00
18835;BME280;9546;59.262;18.036;2022-07-23T17:17:22;100832.22;;;23.91;100.00
18835;BME280;9546;59.262;18.036;2022-07-23T17:19:49;100825.88;;;23.82;100.00
18835;BME280;9546;59.262;18.036;2022-07-23T17:22:16;100823.50;;;23.89;100.00
18835;BME280;9546;59.262;18.036;2022-07-23T17:24:42;100826.16;;;24.16;100.00
18835;BME280;9546;59.262;18.036;2022-07-23T17:27:09;64177.75;;;-139.62;100.00
18835;BME280;9546;59.262;18.036;2022-07-23T17:29:38;64177.75;;;-139.62;100.00
18835;BME280;9546;59.262;18.036;2022-07-23T17:32:05;64177.75;;;-139.62;100.00
18835;BME280;9546;59.262;18.036;2022-07-23T17:34:32;64177.75;;;-139.62;100.00
18835;BME280;9546;59.262;18.036;2022-07-23T17:36:59;64177.75;;;-139.62;100.00
18835;BME280;9546;59.262;18.036;2022-07-23T17:39:26;64177.75;;;-139.62;100.00
18835;BME280;9546;59.262;18.036;2022-07-23T17:41:53;64177.75;;;-139.62;100.00
18835;BME280;9546;59.262;18.036;2022-07-23T17:44:20;64177.75;;;-139.62;100.00
18835;BME280;9546;59.262;18.036;2022-07-23T17:46:48;64177.75;;;-139.62;100.00
18835;BME280;9546;59.262;18.036;2022-07-23T17:49:15;64177.75;;;-139.62;100.00
18835;BME280;9546;59.262;18.036;2022-07-23T17:51:42;64177.75;;;-139.62;100.00
18835;BME280;9546;59.262;18.036;2022-07-23T17:54:08;64177.75;;;-139.62;100.00
18835;BME280;9546;59.262;18.036;2022-07-23T17:56:35;64177.75;;;-139.62;100.00
18835;BME280;9546;59.262;18.036;2022-07-23T17:59:02;64177.75;;;-139.62;100.00
18835;BME280;9546;59.262;18.036;2022-07-23T18:01:29;64177.75;;;-139.62;100.00
18835;BME280;9546;59.262;18.036;2022-07-23T18:03:57;64177.75;;;-139.62;100.00
18835;BME280;9546;59.262;18.036;2022-07-23T18:06:24;64177.75;;;-139.62;100.00
18835;BME280;9546;59.262;18.036;2022-07-23T18:08:51;64177.75;;;-139.62;100.00
18835;BME280;9546;59.262;18.036;2022-07-23T18:11:18;64177.75;;;-139.62;100.00
18835;BME280;9546;59.262;18.036;2022-07-23T18:13:45;64177.75;;;-139.62;100.00
18835;BME280;9546;59.262;18.036;2022-07-23T18:16:12;64177.75;;;-139.62;100.00
18835;BME280;9546;59.262;18.036;2022-07-23T18:18:39;64177.75;;;-139.62;100.00
18835;BME280;9546;59.262;18.036;2022-07-23T18:21:08;64177.75;;;-139.62;100.00
18835;BME280;9546;59.262;18.036;2022-07-23T18:23:34;64177.75;;;-139.62;100.00
18835;BME280;9546;59.262;18.036;2022-07-23T18:26:01;64177.75;;;-139.62;100.00
18835;BME280;9546;59.262;18.036;2022-07-23T18:28:28;64177.75;;;-139.62;100.00
18835;BME280;9546;59.262;18.036;2022-07-23T18:30:56;64177.75;;;-139.62;100.00
18835;BME280;9546;59.262;18.036;2022-07-23T18:33:23;64177.75;;;-139.62;100.00
18835;BME280;9546;59.262;18.036;2022-07-23T18:35:49;64177.75;;;-139.62;100.00
